sensor_id;sensor_type;location;lat;lon;timestamp;pressure;altitude;pressure_sealevel;temperature;humidity
50682;BME280;36779;52.168;20.878;2022-07-03T00:02:17;101191.35;;;18.39;66.26
50682;BME280;36779;52.168;20.878;2022-07-03T00:05:08;101195.65;;;18.47;66.45
50682;BME280;36779;52.168;20.878;2022-07-03T00:08:01;101189.97;;;18.52;66.30
50682;BME280;36779;52.168;20.878;2022-07-03T00:10:51;101191.02;;;18.48;66.25
50682;BME280;36779;52.168;20.878;2022-07-03T00:13:44;101187.95;;;18.40;65.97
50682;BME280;36779;52.168;20.878;2022-07-03T00:16:40;101187.19;;;18.30;65.83
50682;BME280;36779;52.168;20.878;2022-07-03T00:19:22;101186.98;;;18.19;65.83
50682;BME280;36779;52.168;20.878;2022-07-03T00:22:13;101185.14;;;18.09;65.80
50682;BME280;36779;52.168;20.878;2022-07-03T00:25:04;101184.25;;;18.01;65.86
50682;BME280;36779;52.168;20.878;2022-07-03T00:27:40;101183.91;;;17.96;66.07
50682;BME280;36779;52.168;20.878;2022-07-03T00:30:32;101182.38;;;17.97;66.21
50682;BME280;36779;52.168;20.878;2022-07-03T00:33:22;101184.35;;;18.03;66.34
50682;BME280;36779;52.168;20.878;2022-07-03T00:36:13;101184.89;;;18.10;66.38
50682;BME280;36779;52.168;20.878;2022-07-03T00:39:04;101188.17;;;18.11;66.35
50682;BME280;36779;52.168;20.878;2022-07-03T00:42:04;101185.59;;;18.06;66.25
50682;BME280;36779;52.168;20.878;2022-07-03T00:44:56;101187.52;;;17.92;66.00
50682;BME280;36779;52.168;20.878;2022-07-03T00:47:48;101184.15;;;17.80;66.02
50682;BME280;36779;52.168;20.878;2022-07-03T00:50:45;101182.66;;;17.74;66.07
50682;BME280;36779;52.168;20.878;2022-07-03T00:53:37;101181.83;;;17.72;66.20
50682;BME280;36779;52.168;20.878;2022-07-03T00:56:29;101179.23;;;17.74;66.29
50682;BME280;36779;52.168;20.878;2022-07-03T00:59:18;101178.66;;;17.77;66.34
50682;BME280;36779;52.168;20.878;2022-07-03T01:02:10;101174.49;;;17.81;66.66
50682;BME280;36779;52.168;20.878;2022-07-03T01:05:10;101170.20;;;17.86;66.48
50682;BME280;36779;52.168;20.878;2022-07-03T01:08:11;101163.70;;;17.87;66.63
50682;BME280;36779;52.168;20.878;2022-07-03T01:11:04;101162.31;;;17.91;66.51
50682;BME280;36779;52.168;20.878;2022-07-03T01:14:04;101159.54;;;17.91;66.59
50682;BME280;36779;52.168;20.878;2022-07-03T01:17:06;101155.92;;;17.90;66.55
50682;BME280;36779;52.168;20.878;2022-07-03T01:20:03;101155.77;;;17.84;66.51
50682;BME280;36779;52.168;20.878;2022-07-03T01:22:57;101155.17;;;17.79;66.46
50682;BME280;36779;52.168;20.878;2022-07-03T01:25:42;101149.20;;;17.75;66.52
50682;BME280;36779;52.168;20.878;2022-07-03T01:28:33;101152.71;;;17.69;66.48
50682;BME280;36779;52.168;20.878;2022-07-03T01:31:27;101147.50;;;17.63;66.35
50682;BME280;36779;52.168;20.878;2022-07-03T01:34:19;101143.81;;;17.60;66.45
50682;BME280;36779;52.168;20.878;2022-07-03T01:37:11;101141.71;;;17.58;66.53
50682;BME280;36779;52.168;20.878;2022-07-03T01:40:05;101142.80;;;17.50;66.50
50682;BME280;36779;52.168;20.878;2022-07-03T01:42:55;101147.40;;;17.41;66.50
50682;BME280;36779;52.168;20.878;2022-07-03T01:45:48;101141.77;;;17.37;66.56
50682;BME280;36779;52.168;20.878;2022-07-03T01:48:42;101137.97;;;17.33;66.52
50682;BME280;36779;52.168;20.878;2022-07-03T01:51:32;101142.20;;;17.32;66.77
50682;BME280;36779;52.168;20.878;2022-07-03T01:54:28;101139.09;;;17.37;66.80
50682;BME280;36779;52.168;20.878;2022-07-03T01:57:14;101137.98;;;17.34;66.64
50682;BME280;36779;52.168;20.878;2022-07-03T02:00:04;101134.39;;;17.26;66.48
50682;BME280;36779;52.168;20.878;2022-07-03T02:03:05;101131.40;;;17.14;66.44
50682;BME280;36779;52.168;20.878;2022-07-03T02:06:01;101129.27;;;17.10;66.80
50682;BME280;36779;52.168;20.878;2022-07-03T02:08:54;101131.65;;;17.12;66.89
50682;BME280;36779;52.168;20.878;2022-07-03T02:12:12;101126.88;;;17.12;66.87
50682;BME280;36779;52.168;20.878;2022-07-03T02:15:09;101126.30;;;17.09;66.77
50682;BME280;36779;52.168;20.878;2022-07-03T02:18:03;101126.48;;;17.10;66.96
50682;BME280;36779;52.168;20.878;2022-07-03T02:21:04;101126.81;;;17.15;67.00
50682;BME280;36779;52.168;20.878;2022-07-03T02:23:58;101129.26;;;17.19;67.18
50682;BME280;36779;52.168;20.878;2022-07-03T02:26:56;101131.46;;;17.23;67.26
50682;BME280;36779;52.168;20.878;2022-07-03T02:29:49;101132.85;;;17.24;67.16
50682;BME280;36779;52.168;20.878;2022-07-03T02:32:44;101132.80;;;17.21;67.18
50682;BME280;36779;52.168;20.878;2022-07-03T02:35:35;101134.04;;;17.16;66.91
50682;BME280;36779;52.168;20.878;2022-07-03T02:38:25;101134.17;;;17.15;67.13
50682;BME280;36779;52.168;20.878;2022-07-03T02:41:21;101136.60;;;17.16;67.06
50682;BME280;36779;52.168;20.878;2022-07-03T02:44:26;101139.18;;;17.20;67.32
50682;BME280;36779;52.168;20.878;2022-07-03T02:47:25;101139.70;;;17.25;67.20
50682;BME280;36779;52.168;20.878;2022-07-03T02:50:20;101138.19;;;17.30;67.36
50682;BME280;36779;52.168;20.878;2022-07-03T02:53:20;101136.06;;;17.32;67.44
50682;BME280;36779;52.168;20.878;2022-07-03T02:56:15;101135.69;;;17.32;67.17
50682;BME280;36779;52.168;20.878;2022-07-03T02:59:16;101131.14;;;17.30;67.05
50682;BME280;36779;52.168;20.878;2022-07-03T03:02:14;101135.77;;;17.20;66.88
50682;BME280;36779;52.168;20.878;2022-07-03T03:05:07;101134.73;;;17.15;67.17
50682;BME280;36779;52.168;20.878;2022-07-03T03:08:08;101132.36;;;17.12;67.00
50682;BME280;36779;52.168;20.878;2022-07-03T03:11:14;101129.38;;;17.06;67.10
50682;BME280;36779;52.168;20.878;2022-07-03T03:14:18;101125.71;;;17.04;67.17
50682;BME280;36779;52.168;20.878;2022-07-03T03:17:09;101121.77;;;17.04;67.04
50682;BME280;36779;52.168;20.878;2022-07-03T03:20:03;101121.77;;;17.02;67.08
50682;BME280;36779;52.168;20.878;2022-07-03T03:23:03;101119.99;;;17.02;67.23
50682;BME280;36779;52.168;20.878;2022-07-03T03:25:59;101115.79;;;17.04;67.26
50682;BME280;36779;52.168;20.878;2022-07-03T03:28:48;101114.42;;;17.07;67.11
50682;BME280;36779;52.168;20.878;2022-07-03T03:31:39;101110.38;;;17.10;67.25
50682;BME280;36779;52.168;20.878;2022-07-03T03:34:13;101110.35;;;17.12;67.33
50682;BME280;36779;52.168;20.878;2022-07-03T03:37:04;101108.30;;;17.09;67.18
50682;BME280;36779;52.168;20.878;2022-07-03T03:39:54;101106.88;;;17.07;67.29
50682;BME280;36779;52.168;20.878;2022-07-03T03:42:43;101106.27;;;17.03;67.08
50682;BME280;36779;52.168;20.878;2022-07-03T03:45:45;101102.05;;;16.99;67.19
50682;BME280;36779;52.168;20.878;2022-07-03T03:48:35;101099.63;;;16.94;67.28
50682;BME280;36779;52.168;20.878;2022-07-03T03:51:25;101098.10;;;16.95;67.27
50682;BME280;36779;52.168;20.878;2022-07-03T03:54:14;101095.70;;;16.95;67.41
50682;BME280;36779;52.168;20.878;2022-07-03T03:57:19;101096.30;;;16.99;67.13
50682;BME280;36779;52.168;20.878;2022-07-03T04:00:11;101102.98;;;17.00;67.37
50682;BME280;36779;52.168;20.878;2022-07-03T04:02:40;101098.60;;;17.01;67.21
50682;BME280;36779;52.168;20.878;2022-07-03T04:05:30;101102.67;;;17.01;67.33
50682;BME280;36779;52.168;20.878;2022-07-03T04:08:18;101102.23;;;17.07;67.26
50682;BME280;36779;52.168;20.878;2022-07-03T04:11:07;101103.02;;;17.15;67.34
50682;BME280;36779;52.168;20.878;2022-07-03T04:13:56;101100.96;;;17.16;67.24
50682;BME280;36779;52.168;20.878;2022-07-03T04:16:46;101101.38;;;17.16;67.45
50682;BME280;36779;52.168;20.878;2022-07-03T04:19:35;101096.97;;;17.15;67.25
50682;BME280;36779;52.168;20.878;2022-07-03T04:22:25;101100.21;;;17.17;67.18
50682;BME280;36779;52.168;20.878;2022-07-03T04:25:14;101098.08;;;17.22;67.13
50682;BME280;36779;52.168;20.878;2022-07-03T04:28:04;101098.58;;;17.25;67.22
50682;BME280;36779;52.168;20.878;2022-07-03T04:31:09;101101.14;;;17.31;67.14
50682;BME280;36779;52.168;20.878;2022-07-03T04:33:59;101100.31;;;17.35;67.18
50682;BME280;36779;52.168;20.878;2022-07-03T04:36:48;101099.61;;;17.38;67.20
50682;BME280;36779;52.168;20.878;2022-07-03T04:39:37;101091.16;;;17.39;67.20
50682;BME280;36779;52.168;20.878;2022-07-03T04:42:26;101095.13;;;17.45;67.21
50682;BME280;36779;52.168;20.878;2022-07-03T04:45:16;101095.19;;;17.51;67.24
50682;BME280;36779;52.168;20.878;2022-07-03T04:48:05;101092.63;;;17.55;67.17
50682;BME280;36779;52.168;20.878;2022-07-03T04:50:54;101088.71;;;17.58;67.16
50682;BME280;36779;52.168;20.878;2022-07-03T04:53:44;101085.77;;;17.61;67.01
50682;BME280;36779;52.168;20.878;2022-07-03T04:56:34;101086.70;;;17.62;67.11
50682;BME280;36779;52.168;20.878;2022-07-03T04:59:23;101086.52;;;17.65;67.13
50682;BME280;36779;52.168;20.878;2022-07-03T05:02:13;101090.79;;;17.73;67.06
50682;BME280;36779;52.168;20.878;2022-07-03T05:05:03;101091.01;;;17.84;67.09
50682;BME280;36779;52.168;20.878;2022-07-03T05:07:52;101094.90;;;17.92;67.07
50682;BME280;36779;52.168;20.878;2022-07-03T05:10:41;101098.44;;;17.98;66.82
50682;BME280;36779;52.168;20.878;2022-07-03T05:13:30;101102.91;;;18.02;66.95
50682;BME280;36779;52.168;20.878;2022-07-03T05:16:19;101101.26;;;18.11;67.00
50682;BME280;36779;52.168;20.878;2022-07-03T05:19:08;101103.14;;;18.18;66.86
50682;BME280;36779;52.168;20.878;2022-07-03T05:21:58;101102.84;;;18.22;66.92
50682;BME280;36779;52.168;20.878;2022-07-03T05:24:47;101098.67;;;18.26;66.70
50682;BME280;36779;52.168;20.878;2022-07-03T05:27:37;101095.24;;;18.32;66.83
50682;BME280;36779;52.168;20.878;2022-07-03T05:30:19;101098.18;;;18.41;66.71
50682;BME280;36779;52.168;20.878;2022-07-03T05:33:08;101096.64;;;18.53;66.61
50682;BME280;36779;52.168;20.878;2022-07-03T05:35:58;101094.45;;;18.59;66.42
50682;BME280;36779;52.168;20.878;2022-07-03T05:38:47;101089.88;;;18.67;66.47
50682;BME280;36779;52.168;20.878;2022-07-03T05:41:45;101086.95;;;18.78;66.38
50682;BME280;36779;52.168;20.878;2022-07-03T05:44:33;101086.64;;;18.81;66.09
50682;BME280;36779;52.168;20.878;2022-07-03T05:47:22;101084.03;;;18.84;66.11
50682;BME280;36779;52.168;20.878;2022-07-03T05:50:11;101090.11;;;18.94;66.21
50682;BME280;36779;52.168;20.878;2022-07-03T05:53:01;101093.16;;;19.08;65.95
50682;BME280;36779;52.168;20.878;2022-07-03T05:55:49;101092.20;;;19.25;65.94
50682;BME280;36779;52.168;20.878;2022-07-03T05:58:41;101089.42;;;19.82;66.51
50682;BME280;36779;52.168;20.878;2022-07-03T06:01:30;101091.41;;;20.50;66.75
50682;BME280;36779;52.168;20.878;2022-07-03T06:04:19;101088.00;;;21.13;66.34
50682;BME280;36779;52.168;20.878;2022-07-03T06:07:08;101095.44;;;21.48;65.89
50682;BME280;36779;52.168;20.878;2022-07-03T06:09:59;101097.06;;;21.82;65.92
50682;BME280;36779;52.168;20.878;2022-07-03T06:12:50;101102.75;;;22.18;65.56
50682;BME280;36779;52.168;20.878;2022-07-03T06:15:39;101104.45;;;22.34;65.31
50682;BME280;36779;52.168;20.878;2022-07-03T06:18:30;101106.03;;;22.48;64.75
50682;BME280;36779;52.168;20.878;2022-07-03T06:21:19;101099.41;;;22.45;64.41
50682;BME280;36779;52.168;20.878;2022-07-03T06:24:09;101103.98;;;22.38;64.01
50682;BME280;36779;52.168;20.878;2022-07-03T06:26:59;101106.46;;;22.25;63.46
50682;BME280;36779;52.168;20.878;2022-07-03T06:29:48;101106.73;;;22.07;63.17
50682;BME280;36779;52.168;20.878;2022-07-03T06:32:38;101105.50;;;21.93;62.96
50682;BME280;36779;52.168;20.878;2022-07-03T06:35:27;101106.81;;;21.77;62.80
50682;BME280;36779;52.168;20.878;2022-07-03T06:38:16;101107.16;;;21.62;62.60
50682;BME280;36779;52.168;20.878;2022-07-03T06:41:05;101104.73;;;21.35;62.29
50682;BME280;36779;52.168;20.878;2022-07-03T06:43:54;101107.02;;;21.14;62.33
50682;BME280;36779;52.168;20.878;2022-07-03T06:46:44;101103.39;;;21.04;62.31
50682;BME280;36779;52.168;20.878;2022-07-03T06:49:34;101105.27;;;21.00;62.46
50682;BME280;36779;52.168;20.878;2022-07-03T06:52:22;101105.52;;;20.87;62.08
50682;BME280;36779;52.168;20.878;2022-07-03T06:55:12;101102.64;;;20.73;61.95
50682;BME280;36779;52.168;20.878;2022-07-03T06:58:01;101093.09;;;20.58;61.79
50682;BME280;36779;52.168;20.878;2022-07-03T07:00:49;101089.57;;;20.48;61.73
50682;BME280;36779;52.168;20.878;2022-07-03T07:03:38;101080.52;;;20.41;61.74
50682;BME280;36779;52.168;20.878;2022-07-03T07:06:22;101075.66;;;20.35;61.64
50682;BME280;36779;52.168;20.878;2022-07-03T07:09:11;101070.13;;;20.33;61.55
50682;BME280;36779;52.168;20.878;2022-07-03T07:12:01;101067.46;;;20.39;61.82
50682;BME280;36779;52.168;20.878;2022-07-03T07:14:50;101065.42;;;20.71;61.97
50682;BME280;36779;52.168;20.878;2022-07-03T07:17:39;101064.39;;;21.15;62.11
50682;BME280;36779;52.168;20.878;2022-07-03T07:20:28;101064.79;;;21.51;61.66
50682;BME280;36779;52.168;20.878;2022-07-03T07:23:17;101059.29;;;21.63;61.20
50682;BME280;36779;52.168;20.878;2022-07-03T07:26:00;101057.16;;;21.63;60.99
50682;BME280;36779;52.168;20.878;2022-07-03T07:28:50;101061.25;;;21.63;60.81
50682;BME280;36779;52.168;20.878;2022-07-03T07:31:29;101058.09;;;21.60;60.66
50682;BME280;36779;52.168;20.878;2022-07-03T07:34:19;101051.86;;;21.55;60.45
50682;BME280;36779;52.168;20.878;2022-07-03T07:37:08;101046.55;;;21.49;60.38
50682;BME280;36779;52.168;20.878;2022-07-03T07:40:01;101050.64;;;21.42;60.27
50682;BME280;36779;52.168;20.878;2022-07-03T07:42:53;101047.01;;;21.36;60.29
50682;BME280;36779;52.168;20.878;2022-07-03T07:45:43;101045.27;;;21.34;60.27
50682;BME280;36779;52.168;20.878;2022-07-03T07:48:35;101044.11;;;21.38;60.38
50682;BME280;36779;52.168;20.878;2022-07-03T07:51:25;101046.91;;;21.36;60.18
50682;BME280;36779;52.168;20.878;2022-07-03T07:54:15;101044.72;;;21.34;60.17
50682;BME280;36779;52.168;20.878;2022-07-03T07:57:04;101039.96;;;21.36;60.09
50682;BME280;36779;52.168;20.878;2022-07-03T07:59:53;101045.02;;;21.36;60.04
50682;BME280;36779;52.168;20.878;2022-07-03T08:02:44;101042.58;;;21.39;59.94
50682;BME280;36779;52.168;20.878;2022-07-03T08:05:53;101039.73;;;21.45;59.98
50682;BME280;36779;52.168;20.878;2022-07-03T08:08:43;101037.55;;;21.54;59.89
50682;BME280;36779;52.168;20.878;2022-07-03T08:11:26;101040.80;;;21.49;59.50
50682;BME280;36779;52.168;20.878;2022-07-03T08:14:15;101034.59;;;21.44;59.48
50682;BME280;36779;52.168;20.878;2022-07-03T08:17:05;101035.77;;;21.45;59.54
50682;BME280;36779;52.168;20.878;2022-07-03T08:19:57;101038.69;;;21.48;59.40
50682;BME280;36779;52.168;20.878;2022-07-03T08:22:48;101040.73;;;21.47;59.23
50682;BME280;36779;52.168;20.878;2022-07-03T08:25:38;101038.42;;;21.47;59.13
50682;BME280;36779;52.168;20.878;2022-07-03T08:28:28;101036.87;;;21.49;59.08
50682;BME280;36779;52.168;20.878;2022-07-03T08:31:10;101032.00;;;21.55;58.96
50682;BME280;36779;52.168;20.878;2022-07-03T08:34:00;101028.00;;;21.65;59.03
50682;BME280;36779;52.168;20.878;2022-07-03T08:36:49;101017.58;;;21.80;58.95
50682;BME280;36779;52.168;20.878;2022-07-03T08:39:39;101018.99;;;21.92;58.83
50682;BME280;36779;52.168;20.878;2022-07-03T08:42:33;101013.20;;;22.12;58.96
50682;BME280;36779;52.168;20.878;2022-07-03T08:45:20;101006.59;;;22.42;58.89
50682;BME280;36779;52.168;20.878;2022-07-03T08:48:11;101004.80;;;22.71;58.70
50682;BME280;36779;52.168;20.878;2022-07-03T08:51:05;101007.77;;;22.97;58.34
50682;BME280;36779;52.168;20.878;2022-07-03T08:53:55;101004.66;;;23.23;58.17
50682;BME280;36779;52.168;20.878;2022-07-03T08:56:48;101003.27;;;23.59;58.04
50682;BME280;36779;52.168;20.878;2022-07-03T08:59:38;101001.42;;;23.96;57.98
50682;BME280;36779;52.168;20.878;2022-07-03T09:02:28;100999.77;;;24.30;57.73
50682;BME280;36779;52.168;20.878;2022-07-03T09:05:19;100994.06;;;24.60;57.46
50682;BME280;36779;52.168;20.878;2022-07-03T09:08:09;100994.98;;;24.87;57.17
50682;BME280;36779;52.168;20.878;2022-07-03T09:10:49;100998.79;;;25.13;57.08
50682;BME280;36779;52.168;20.878;2022-07-03T09:13:38;101000.86;;;25.33;56.55
50682;BME280;36779;52.168;20.878;2022-07-03T09:16:28;100997.68;;;25.38;56.17
50682;BME280;36779;52.168;20.878;2022-07-03T09:19:42;100991.16;;;25.59;56.20
50682;BME280;36779;52.168;20.878;2022-07-03T09:22:34;100988.31;;;25.90;56.22
50682;BME280;36779;52.168;20.878;2022-07-03T09:25:14;100985.26;;;26.27;56.29
50682;BME280;36779;52.168;20.878;2022-07-03T09:28:04;100987.20;;;26.56;55.90
50682;BME280;36779;52.168;20.878;2022-07-03T09:31:01;100987.55;;;26.83;55.47
50682;BME280;36779;52.168;20.878;2022-07-03T09:34:00;100987.75;;;26.92;55.07
50682;BME280;36779;52.168;20.878;2022-07-03T09:36:50;100985.44;;;26.97;55.17
50682;BME280;36779;52.168;20.878;2022-07-03T09:39:32;100987.87;;;27.08;54.52
50682;BME280;36779;52.168;20.878;2022-07-03T09:42:26;100983.61;;;27.18;54.80
50682;BME280;36779;52.168;20.878;2022-07-03T09:45:15;100981.58;;;27.50;54.60
50682;BME280;36779;52.168;20.878;2022-07-03T09:48:04;100981.14;;;27.57;54.18
50682;BME280;36779;52.168;20.878;2022-07-03T09:51:23;100977.61;;;27.73;54.14
50682;BME280;36779;52.168;20.878;2022-07-03T09:54:15;100977.52;;;28.03;54.14
50682;BME280;36779;52.168;20.878;2022-07-03T09:57:12;100975.99;;;28.22;53.71
50682;BME280;36779;52.168;20.878;2022-07-03T10:00:25;100970.48;;;28.35;53.51
50682;BME280;36779;52.168;20.878;2022-07-03T10:03:14;100969.09;;;28.53;53.19
50682;BME280;36779;52.168;20.878;2022-07-03T10:06:05;100965.22;;;28.56;52.76
50682;BME280;36779;52.168;20.878;2022-07-03T10:08:54;100968.15;;;28.66;52.93
50682;BME280;36779;52.168;20.878;2022-07-03T10:11:44;100970.14;;;28.97;52.76
50682;BME280;36779;52.168;20.878;2022-07-03T10:14:33;100966.48;;;28.93;52.10
50682;BME280;36779;52.168;20.878;2022-07-03T10:17:23;100966.39;;;28.96;52.11
50682;BME280;36779;52.168;20.878;2022-07-03T10:20:15;100960.21;;;29.21;52.12
50682;BME280;36779;52.168;20.878;2022-07-03T10:23:04;100956.16;;;29.41;51.75
50682;BME280;36779;52.168;20.878;2022-07-03T10:26:00;100965.49;;;29.40;51.22
50682;BME280;36779;52.168;20.878;2022-07-03T10:28:50;100954.84;;;29.49;51.33
50682;BME280;36779;52.168;20.878;2022-07-03T10:31:46;100952.23;;;29.61;51.31
50682;BME280;36779;52.168;20.878;2022-07-03T10:34:36;100945.61;;;29.86;51.15
50682;BME280;36779;52.168;20.878;2022-07-03T10:37:30;100942.23;;;30.06;50.87
50682;BME280;36779;52.168;20.878;2022-07-03T10:40:34;100942.88;;;30.20;50.68
50682;BME280;36779;52.168;20.878;2022-07-03T10:43:50;100941.47;;;30.28;50.14
50682;BME280;36779;52.168;20.878;2022-07-03T10:47:03;100937.48;;;30.13;49.78
50682;BME280;36779;52.168;20.878;2022-07-03T10:50:11;100934.66;;;30.17;49.87
50682;BME280;36779;52.168;20.878;2022-07-03T10:53:23;100931.52;;;30.23;49.14
50682;BME280;36779;52.168;20.878;2022-07-03T10:56:16;100924.06;;;29.90;49.03
50682;BME280;36779;52.168;20.878;2022-07-03T10:59:06;100917.22;;;29.98;49.17
50682;BME280;36779;52.168;20.878;2022-07-03T11:02:19;100921.27;;;30.03;48.99
50682;BME280;36779;52.168;20.878;2022-07-03T11:05:20;100918.21;;;29.95;48.75
50682;BME280;36779;52.168;20.878;2022-07-03T11:08:13;100913.78;;;30.10;48.96
50682;BME280;36779;52.168;20.878;2022-07-03T11:11:02;100910.86;;;30.37;49.02
50682;BME280;36779;52.168;20.878;2022-07-03T11:14:24;100905.70;;;30.67;48.83
50682;BME280;36779;52.168;20.878;2022-07-03T11:17:20;100899.90;;;30.92;48.62
50682;BME280;36779;52.168;20.878;2022-07-03T11:20:25;100894.96;;;31.04;48.38
50682;BME280;36779;52.168;20.878;2022-07-03T11:23:19;100889.27;;;31.27;48.28
50682;BME280;36779;52.168;20.878;2022-07-03T11:26:21;100892.20;;;31.28;47.93
50682;BME280;36779;52.168;20.878;2022-07-03T11:29:28;100891.57;;;31.17;47.42
50682;BME280;36779;52.168;20.878;2022-07-03T11:32:43;100885.17;;;31.10;47.58
50682;BME280;36779;52.168;20.878;2022-07-03T11:35:50;100880.81;;;31.12;47.33
50682;BME280;36779;52.168;20.878;2022-07-03T11:38:41;100884.89;;;31.04;46.90
50682;BME280;36779;52.168;20.878;2022-07-03T11:41:42;100882.04;;;30.95;46.91
50682;BME280;36779;52.168;20.878;2022-07-03T11:44:31;100884.91;;;30.85;46.69
50682;BME280;36779;52.168;20.878;2022-07-03T11:47:22;100876.70;;;30.65;46.34
50682;BME280;36779;52.168;20.878;2022-07-03T11:50:12;100877.27;;;30.29;46.06
50682;BME280;36779;52.168;20.878;2022-07-03T11:53:01;100875.84;;;30.12;46.14
50682;BME280;36779;52.168;20.878;2022-07-03T11:56:04;100876.02;;;30.09;46.40
50682;BME280;36779;52.168;20.878;2022-07-03T11:58:56;100869.82;;;30.38;46.81
50682;BME280;36779;52.168;20.878;2022-07-03T12:01:49;100863.54;;;30.67;46.53
50682;BME280;36779;52.168;20.878;2022-07-03T12:04:39;100861.31;;;30.45;45.78
50682;BME280;36779;52.168;20.878;2022-07-03T12:07:24;100864.98;;;30.24;45.66
50682;BME280;36779;52.168;20.878;2022-07-03T12:10:15;100862.52;;;30.22;45.93
50682;BME280;36779;52.168;20.878;2022-07-03T12:13:19;100857.41;;;30.16;45.72
50682;BME280;36779;52.168;20.878;2022-07-03T12:16:11;100855.42;;;30.25;45.70
50682;BME280;36779;52.168;20.878;2022-07-03T12:19:05;100855.77;;;30.14;45.27
50682;BME280;36779;52.168;20.878;2022-07-03T12:22:00;100851.20;;;29.86;45.29
50682;BME280;36779;52.168;20.878;2022-07-03T12:24:55;100847.58;;;29.85;45.42
50682;BME280;36779;52.168;20.878;2022-07-03T12:27:37;100846.71;;;29.78;45.27
50682;BME280;36779;52.168;20.878;2022-07-03T12:30:27;100845.92;;;29.66;45.01
50682;BME280;36779;52.168;20.878;2022-07-03T12:33:19;100848.67;;;29.49;44.95
50682;BME280;36779;52.168;20.878;2022-07-03T12:36:14;100844.75;;;29.31;44.97
50682;BME280;36779;52.168;20.878;2022-07-03T12:39:04;100844.64;;;29.22;45.01
50682;BME280;36779;52.168;20.878;2022-07-03T12:41:55;100846.84;;;29.04;44.89
50682;BME280;36779;52.168;20.878;2022-07-03T12:44:56;100842.02;;;28.91;44.91
50682;BME280;36779;52.168;20.878;2022-07-03T12:47:59;100846.13;;;29.07;45.35
50682;BME280;36779;52.168;20.878;2022-07-03T12:50:48;100847.41;;;29.41;45.49
50682;BME280;36779;52.168;20.878;2022-07-03T12:53:40;100843.55;;;29.63;45.27
50682;BME280;36779;52.168;20.878;2022-07-03T12:56:30;100837.86;;;29.80;45.40
50682;BME280;36779;52.168;20.878;2022-07-03T12:59:27;100832.71;;;30.20;45.57
50682;BME280;36779;52.168;20.878;2022-07-03T13:02:27;100835.34;;;30.46;45.23
50682;BME280;36779;52.168;20.878;2022-07-03T13:05:18;100828.79;;;30.63;45.42
50682;BME280;36779;52.168;20.878;2022-07-03T13:08:07;100827.95;;;30.74;44.87
50682;BME280;36779;52.168;20.878;2022-07-03T13:11:00;100829.38;;;30.74;44.78
50682;BME280;36779;52.168;20.878;2022-07-03T13:13:49;100822.65;;;30.68;44.55
50682;BME280;36779;52.168;20.878;2022-07-03T13:16:44;100821.02;;;30.39;44.01
50682;BME280;36779;52.168;20.878;2022-07-03T13:19:27;100817.36;;;30.26;44.51
50682;BME280;36779;52.168;20.878;2022-07-03T13:22:17;100813.64;;;30.40;44.74
50682;BME280;36779;52.168;20.878;2022-07-03T13:25:11;100809.86;;;30.55;44.49
50682;BME280;36779;52.168;20.878;2022-07-03T13:28:07;100809.48;;;30.56;44.38
50682;BME280;36779;52.168;20.878;2022-07-03T13:31:01;100800.05;;;30.60;44.32
50682;BME280;36779;52.168;20.878;2022-07-03T13:33:51;100797.10;;;30.63;44.21
50682;BME280;36779;52.168;20.878;2022-07-03T13:36:41;100795.00;;;30.49;43.91
50682;BME280;36779;52.168;20.878;2022-07-03T13:39:30;100790.83;;;30.49;44.06
50682;BME280;36779;52.168;20.878;2022-07-03T13:42:22;100785.67;;;30.46;43.85
50682;BME280;36779;52.168;20.878;2022-07-03T13:45:12;100783.65;;;30.52;44.00
50682;BME280;36779;52.168;20.878;2022-07-03T13:48:01;100781.10;;;30.55;43.70
50682;BME280;36779;52.168;20.878;2022-07-03T13:50:30;100783.05;;;30.58;43.73
50682;BME280;36779;52.168;20.878;2022-07-03T13:53:23;100780.67;;;30.53;43.63
50682;BME280;36779;52.168;20.878;2022-07-03T13:56:15;100782.16;;;30.44;43.33
50682;BME280;36779;52.168;20.878;2022-07-03T13:59:19;100781.35;;;30.24;43.52
50682;BME280;36779;52.168;20.878;2022-07-03T14:02:14;100777.98;;;30.26;43.36
50682;BME280;36779;52.168;20.878;2022-07-03T14:05:07;100771.98;;;30.12;43.45
50682;BME280;36779;52.168;20.878;2022-07-03T14:08:00;100775.43;;;30.18;43.56
50682;BME280;36779;52.168;20.878;2022-07-03T14:10:50;100771.30;;;30.07;43.10
50682;BME280;36779;52.168;20.878;2022-07-03T14:13:39;100766.13;;;29.84;43.15
50682;BME280;36779;52.168;20.878;2022-07-03T14:16:30;100770.02;;;29.72;43.15
50682;BME280;36779;52.168;20.878;2022-07-03T14:19:24;100768.63;;;29.62;43.27
50682;BME280;36779;52.168;20.878;2022-07-03T14:22:21;100765.06;;;29.63;43.40
50682;BME280;36779;52.168;20.878;2022-07-03T14:25:10;100764.24;;;29.54;43.19
50682;BME280;36779;52.168;20.878;2022-07-03T14:28:01;100757.44;;;29.30;43.09
50682;BME280;36779;52.168;20.878;2022-07-03T14:31:10;100762.58;;;29.02;43.05
50682;BME280;36779;52.168;20.878;2022-07-03T14:34:20;100760.27;;;28.64;42.88
50682;BME280;36779;52.168;20.878;2022-07-03T14:37:12;100756.59;;;28.36;42.98
50682;BME280;36779;52.168;20.878;2022-07-03T14:40:08;100755.44;;;27.97;42.96
50682;BME280;36779;52.168;20.878;2022-07-03T14:43:12;100751.95;;;27.66;43.00
50682;BME280;36779;52.168;20.878;2022-07-03T14:46:03;100752.98;;;27.40;43.25
50682;BME280;36779;52.168;20.878;2022-07-03T14:48:56;100750.17;;;27.41;43.67
50682;BME280;36779;52.168;20.878;2022-07-03T14:51:46;100750.09;;;27.55;43.71